Time,TemperatureF,DewpointF,PressureIn,WindDirection,WindDirectionDegrees,WindSpeedMPH,WindSpeedGustMPH,Humidity,HourlyPrecipIn,Conditions,Clouds,dailyrainin,SoftwareType,DateUTC
2014-12-28 00:00:00,45.9,45.1,29.98,SW,236,6.0,7.0,97,0.00,,,0.15,Wunderground v.1.15,2014-12-28 05:00:00,
2014-12-28 00:05:00,45.9,45.1,29.97,West,269,7.0,11.0,97,0.00,,,0.16,Wunderground v.1.15,2014-12-28 05:05:00,
2014-12-28 00:15:00,45.8,45.0,29.96,West,271,6.0,8.0,97,0.10,,,0.17,Wunderground v.1.15,2014-12-28 05:15:00,
2014-12-28 00:25:00,45.0,44.2,29.97,NW,325,7.0,13.0,97,0.18,,,0.20,Wunderground v.1.15,2014-12-28 05:25:00,
2014-12-28 00:35:00,43.1,42.0,29.97,NNW,339,6.0,14.0,96,0.14,,,0.22,Wunderground v.1.15,2014-12-28 05:35:00,
2014-12-28 00:40:00,42.5,41.4,29.96,WNW,297,5.0,14.0,96,0.11,,,0.22,Wunderground v.1.15,2014-12-28 05:40:00,
2014-12-28 00:50:00,41.8,40.7,29.94,NW,325,6.0,6.0,96,0.12,,,0.24,Wunderground v.1.15,2014-12-28 05:50:00,
2014-12-28 00:55:00,41.6,40.5,29.94,NNW,331,4.0,11.0,96,0.06,,,0.00,Wunderground v.1.15,2014-12-28 05:55:00,
2014-12-28 01:00:00,41.5,40.4,29.94,NW,313,5.0,10.0,96,0.05,,,0.01,Wunderground v.1.15,2014-12-28 06:00:00,
2014-12-28 01:10:00,41.0,39.9,29.94,NW,311,6.0,11.0,96,0.04,,,0.01,Wunderground v.1.15,2014-12-28 06:10:00,
2014-12-28 01:20:00,40.7,39.6,29.94,NW,305,7.0,7.0,96,0.00,,,0.02,Wunderground v.1.15,2014-12-28 06:20:00,
2014-12-28 01:25:00,40.6,39.8,29.94,WNW,302,4.0,11.0,97,0.13,,,0.03,Wunderground v.1.15,2014-12-28 06:25:00,
2014-12-28 01:35:00,40.6,39.8,29.93,NW,311,4.0,4.0,97,0.06,,,0.04,Wunderground v.1.15,2014-12-28 06:35:00,
2014-12-28 01:40:00,40.6,39.8,29.93,NW,313,4.0,13.0,97,0.06,,,0.05,Wunderground v.1.15,2014-12-28 06:40:00,
2014-12-28 01:50:00,40.6,39.8,29.93,NW,324,3.0,5.0,97,0.04,,,0.05,Wunderground v.1.15,2014-12-28 06:50:00,
2014-12-28 02:00:00,40.6,39.8,29.94,NW,316,5.0,5.0,97,0.00,,,0.05,Wunderground v.1.15,2014-12-28 07:00:00,
2014-12-28 02:05:00,40.6,39.8,29.94,North,351,6.0,9.0,97,0.00,,,0.06,Wunderground v.1.15,2014-12-28 07:05:00,
2014-12-28 02:15:00,40.4,39.6,29.94,NW,323,7.0,10.0,97,0.00,,,0.06,Wunderground v.1.15,2014-12-28 07:15:00,
2014-12-28 02:25:00,40.1,39.3,29.95,NW,308,7.0,16.0,97,0.00,,,0.06,Wunderground v.1.15,2014-12-28 07:25:00,
2014-12-28 02:30:00,39.8,39.0,29.95,NNW,342,10.0,17.0,97,0.00,,,0.06,Wunderground v.1.15,2014-12-28 07:30:00,
2014-12-28 02:40:00,38.4,37.4,29.96,NW,304,11.0,11.0,96,0.00,,,0.06,Wunderground v.1.15,2014-12-28 07:40:00,
2014-12-28 02:50:00,37.8,36.8,29.97,NW,319,10.0,22.0,96,0.00,,,0.06,Wunderground v.1.15,2014-12-28 07:50:00,
2014-12-28 02:55:00,37.6,36.6,29.98,NNW,346,9.0,22.0,96,0.00,,,0.06,Wunderground v.1.15,2014-12-28 07:55:00,
2014-12-28 03:05:00,37.3,36.3,29.97,NNW,334,8.0,17.0,96,0.00,,,0.06,Wunderground v.1.15,2014-12-28 08:05:00,
2014-12-28 03:10:00,37.2,36.2,29.97,NW,315,7.0,17.0,96,0.00,,,0.06,Wunderground v.1.15,2014-12-28 08:10:00,
2014-12-28 03:20:00,36.9,35.6,29.98,NNW,329,8.0,15.0,95,0.00,,,0.06,Wunderground v.1.15,2014-12-28 08:20:00,
2014-12-28 03:25:00,36.8,35.5,29.97,NW,313,7.0,15.0,95,0.00,,,0.06,Wunderground v.1.15,2014-12-28 08:25:00,
2014-12-28 03:35:00,36.7,35.4,29.97,NNW,335,6.0,9.0,95,0.00,,,0.06,Wunderground v.1.15,2014-12-28 08:35:00,
2014-12-28 03:45:00,36.5,35.2,29.98,NW,306,7.0,15.0,95,0.00,,,0.06,Wunderground v.1.15,2014-12-28 08:45:00,
2014-12-28 03:55:00,36.2,34.9,29.97,NNW,327,7.0,13.0,95,0.00,,,0.07,Wunderground v.1.15,2014-12-28 08:55:00,
2014-12-28 04:05:00,36.0,34.7,29.98,NW,323,7.0,13.0,95,0.00,,,0.07,Wunderground v.1.15,2014-12-28 09:05:00,
2014-12-28 04:10:00,35.9,34.6,29.98,NW,306,6.0,6.0,95,0.00,,,0.07,Wunderground v.1.15,2014-12-28 09:10:00,
2014-12-28 04:20:00,35.8,34.5,29.98,NW,311,7.0,7.0,95,0.00,,,0.07,Wunderground v.1.15,2014-12-28 09:20:00,
2014-12-28 04:25:00,35.7,34.4,29.98,NW,304,6.0,8.0,95,0.00,,,0.07,Wunderground v.1.15,2014-12-28 09:25:00,
2014-12-28 04:35:00,35.6,34.3,29.98,NNW,348,6.0,12.0,95,0.00,,,0.07,Wunderground v.1.15,2014-12-28 09:35:00,
2014-12-28 04:40:00,35.4,33.8,29.98,NW,309,7.0,12.0,94,0.00,,,0.07,Wunderground v.1.15,2014-12-28 09:40:00,
2014-12-28 04:50:00,35.0,33.4,29.99,WNW,299,9.0,9.0,94,0.00,,,0.07,Wunderground v.1.15,2014-12-28 09:50:00,
2014-12-28 05:05:00,35.0,33.7,30.00,WNW,290,7.0,7.0,95,0.00,,,0.07,Wunderground v.1.15,2014-12-28 10:05:00,
2014-12-28 05:15:00,34.9,33.6,29.99,WNW,284,6.0,8.0,95,0.00,,,0.07,Wunderground v.1.15,2014-12-28 10:15:00,
2014-12-28 05:25:00,34.7,33.4,30.00,NW,304,6.0,12.0,95,0.00,,,0.07,Wunderground v.1.15,2014-12-28 10:25:00,
2014-12-28 05:35:00,34.7,33.7,30.00,WNW,284,6.0,7.0,96,0.00,,,0.07,Wunderground v.1.15,2014-12-28 10:35:00,
2014-12-28 05:40:00,34.6,33.3,30.00,NW,313,7.0,12.0,95,0.00,,,0.07,Wunderground v.1.15,2014-12-28 10:40:00,
2014-12-28 05:50:00,34.4,33.4,30.01,NNW,328,9.0,9.0,96,0.00,,,0.07,Wunderground v.1.15,2014-12-28 10:50:00,
2014-12-28 05:55:00,34.4,33.4,30.01,NW,310,9.0,15.0,96,0.00,,,0.08,Wunderground v.1.15,2014-12-28 10:55:00,
2014-12-28 06:05:00,34.4,33.4,30.01,NNW,338,7.0,14.0,96,0.00,,,0.08,Wunderground v.1.15,2014-12-28 11:05:00,
2014-12-28 06:15:00,34.4,33.4,30.02,NNW,329,7.0,14.0,96,0.00,,,0.08,Wunderground v.1.15,2014-12-28 11:15:00,
2014-12-28 06:25:00,34.3,33.3,30.01,NW,317,6.0,12.0,96,0.00,,,0.08,Wunderground v.1.15,2014-12-28 11:25:00,
2014-12-28 06:35:00,34.1,33.1,30.02,NW,319,6.0,11.0,96,0.00,,,0.09,Wunderground v.1.15,2014-12-28 11:35:00,
2014-12-28 06:40:00,34.1,33.1,30.02,NW,324,5.0,5.0,96,0.00,,,0.09,Wunderground v.1.15,2014-12-28 11:40:00,
2014-12-28 06:50:00,34.1,33.1,30.02,NNW,342,5.0,11.0,96,0.00,,,0.09,Wunderground v.1.15,2014-12-28 11:50:00,
2014-12-28 07:00:00,34.1,33.1,30.02,NNW,327,5.0,6.0,96,0.00,,,0.09,Wunderground v.1.15,2014-12-28 12:00:00,
2014-12-28 07:10:00,34.1,33.1,30.03,NW,324,5.0,5.0,96,0.00,,,0.09,Wunderground v.1.15,2014-12-28 12:10:00,
2014-12-28 07:20:00,34.1,33.1,30.02,NW,313,5.0,9.0,96,0.00,,,0.09,Wunderground v.1.15,2014-12-28 12:20:00,
2014-12-28 07:25:00,34.0,33.0,30.02,NW,320,5.0,9.0,96,0.00,,,0.09,Wunderground v.1.15,2014-12-28 12:25:00,
2014-12-28 07:35:00,33.9,32.9,30.03,West,275,7.0,12.0,96,0.00,,,0.09,Wunderground v.1.15,2014-12-28 12:35:00,
2014-12-28 07:45:00,33.7,32.7,30.03,NNW,327,7.0,12.0,96,0.00,,,0.10,Wunderground v.1.15,2014-12-28 12:45:00,
2014-12-28 07:50:00,33.6,32.6,30.03,NW,319,7.0,7.0,96,0.00,,,0.10,Wunderground v.1.15,2014-12-28 12:50:00,
2014-12-28 08:00:00,33.4,32.4,30.02,North,10,8.0,10.0,96,0.00,,,0.10,Wunderground v.1.15,2014-12-28 13:00:00,
2014-12-28 08:10:00,33.2,32.2,30.03,NW,325,8.0,8.0,96,0.00,,,0.10,Wunderground v.1.15,2014-12-28 13:10:00,
2014-12-28 08:20:00,33.2,32.2,30.02,North,355,6.0,6.0,96,0.00,,,0.10,Wunderground v.1.15,2014-12-28 13:20:00,
2014-12-28 08:30:00,33.0,31.7,30.03,NNW,332,8.0,11.0,95,0.00,,,0.10,Wunderground v.1.15,2014-12-28 13:30:00,
2014-12-28 08:40:00,32.7,31.4,30.04,North,5,9.0,11.0,95,0.00,,,0.10,Wunderground v.1.15,2014-12-28 13:40:00,
2014-12-28 08:50:00,32.7,31.2,30.05,NNW,347,5.0,14.0,94,0.00,,,0.10,Wunderground v.1.15,2014-12-28 13:50:00,
2014-12-28 08:55:00,32.7,31.2,30.04,NNW,346,7.0,14.0,94,0.00,,,0.10,Wunderground v.1.15,2014-12-28 13:55:00,
2014-12-28 09:05:00,32.6,30.8,30.05,West,276,8.0,12.0,93,0.00,,,0.10,Wunderground v.1.15,2014-12-28 14:05:00,
2014-12-28 09:15:00,32.5,30.4,30.06,NW,325,7.0,10.0,92,0.00,,,0.10,Wunderground v.1.15,2014-12-28 14:15:00,
2014-12-28 09:20:00,32.4,30.3,30.06,NW,315,8.0,13.0,92,0.00,,,0.10,Wunderground v.1.15,2014-12-28 14:20:00,
2014-12-28 09:30:00,32.6,30.5,30.06,NW,317,5.0,5.0,92,0.00,,,0.10,Wunderground v.1.15,2014-12-28 14:30:00,
2014-12-28 09:40:00,32.7,30.4,30.06,WNW,294,4.0,13.0,91,0.00,,,0.10,Wunderground v.1.15,2014-12-28 14:40:00,
2014-12-28 09:45:00,32.8,30.5,30.06,NW,325,4.0,13.0,91,0.00,,,0.10,Wunderground v.1.15,2014-12-28 14:45:00,
2014-12-28 09:55:00,33.1,30.8,30.06,NW,319,3.0,9.0,91,0.00,,,0.10,Wunderground v.1.15,2014-12-28 14:55:00,
2014-12-28 10:05:00,33.5,31.2,30.06,NW,315,4.0,8.0,91,0.00,,,0.10,Wunderground v.1.15,2014-12-28 15:05:00,
2014-12-28 10:10:00,33.6,31.0,30.07,NW,321,4.0,8.0,90,0.00,,,0.10,Wunderground v.1.15,2014-12-28 15:10:00,
2014-12-28 10:20:00,33.7,31.1,30.07,WNW,289,3.0,8.0,90,0.00,,,0.10,Wunderground v.1.15,2014-12-28 15:20:00,
2014-12-28 10:25:00,33.8,31.2,30.08,West,259,3.0,8.0,90,0.00,,,0.10,Wunderground v.1.15,2014-12-28 15:25:00,
2014-12-28 10:35:00,33.9,31.3,30.10,West,271,3.0,8.0,90,0.00,,,0.10,Wunderground v.1.15,2014-12-28 15:35:00,
2014-12-28 10:40:00,33.9,31.0,30.10,NW,309,4.0,8.0,89,0.00,,,0.10,Wunderground v.1.15,2014-12-28 15:40:00,
2014-12-28 10:50:00,33.9,31.0,30.08,West,267,4.0,7.0,89,0.00,,,0.10,Wunderground v.1.15,2014-12-28 15:50:00,
2014-12-28 11:00:00,33.9,31.0,30.08,West,279,4.0,6.0,89,0.00,,,0.10,Wunderground v.1.15,2014-12-28 16:00:00,
2014-12-28 11:05:00,33.8,30.9,30.07,NW,319,4.0,9.0,89,0.00,,,0.10,Wunderground v.1.15,2014-12-28 16:05:00,
2014-12-28 11:15:00,34.0,31.1,30.07,NW,304,4.0,9.0,89,0.00,,,0.10,Wunderground v.1.15,2014-12-28 16:15:00,
2014-12-28 11:25:00,34.2,31.3,30.07,WNW,294,4.0,8.0,89,0.00,,,0.10,Wunderground v.1.15,2014-12-28 16:25:00,
2014-12-28 11:30:00,34.3,31.4,30.07,West,277,4.0,4.0,89,0.00,,,0.10,Wunderground v.1.15,2014-12-28 16:30:00,
2014-12-28 11:35:00,34.4,31.5,30.07,NNW,337,3.0,9.0,89,0.00,,,0.10,Wunderground v.1.15,2014-12-28 16:35:00,
2014-12-28 11:45:00,34.5,31.6,30.06,NW,306,3.0,9.0,89,0.00,,,0.10,Wunderground v.1.15,2014-12-28 16:45:00,
2014-12-28 11:55:00,34.6,31.4,30.07,West,261,6.0,8.0,88,0.00,,,0.10,Wunderground v.1.15,2014-12-28 16:55:00,
2014-12-28 12:00:00,34.6,31.4,30.06,West,279,6.0,6.0,88,0.00,,,0.10,Wunderground v.1.15,2014-12-28 17:00:00,
2014-12-28 12:10:00,34.6,31.7,30.06,WNW,303,4.0,11.0,89,0.00,,,0.10,Wunderground v.1.15,2014-12-28 17:10:00,
2014-12-28 12:20:00,34.6,31.4,30.06,West,275,4.0,4.0,88,0.00,,,0.10,Wunderground v.1.15,2014-12-28 17:20:00,
2014-12-28 12:25:00,34.6,31.4,30.06,WNW,294,4.0,11.0,88,0.00,,,0.10,Wunderground v.1.15,2014-12-28 17:25:00,
2014-12-28 12:35:00,34.7,31.5,30.05,WNW,289,3.0,9.0,88,0.00,,,0.10,Wunderground v.1.15,2014-12-28 17:35:00,
2014-12-28 12:40:00,34.8,31.6,30.05,West,275,2.0,9.0,88,0.00,,,0.10,Wunderground v.1.15,2014-12-28 17:40:00,
2014-12-28 12:50:00,34.7,31.2,30.05,WNW,294,5.0,9.0,87,0.00,,,0.10,Wunderground v.1.15,2014-12-28 17:50:00,
2014-12-28 13:00:00,34.9,31.4,30.05,NNW,332,5.0,5.0,87,0.00,,,0.10,Wunderground v.1.15,2014-12-28 18:00:00,
2014-12-28 13:05:00,35.0,31.2,30.05,NNW,328,5.0,8.0,86,0.00,,,0.10,Wunderground v.1.15,2014-12-28 18:05:00,
2014-12-28 13:10:00,35.1,31.3,30.04,NW,321,4.0,8.0,86,0.00,,,0.10,Wunderground v.1.15,2014-12-28 18:10:00,
2014-12-28 13:20:00,35.3,31.2,30.05,NNW,332,3.0,9.0,85,0.00,,,0.10,Wunderground v.1.15,2014-12-28 18:20:00,
2014-12-28 13:30:00,35.4,31.3,30.05,WNW,298,5.0,5.0,85,0.00,,,0.10,Wunderground v.1.15,2014-12-28 18:30:00,
2014-12-28 13:35:00,35.5,31.1,30.05,WNW,287,5.0,9.0,84,0.00,,,0.10,Wunderground v.1.15,2014-12-28 18:35:00,
2014-12-28 13:50:00,35.7,31.3,30.05,WNW,292,4.0,4.0,84,0.00,,,0.10,Wunderground v.1.15,2014-12-28 18:50:00,
2014-12-28 13:55:00,35.8,31.4,30.05,NW,310,5.0,5.0,84,0.00,,,0.10,Wunderground v.1.15,2014-12-28 18:55:00,
2014-12-28 14:00:00,35.7,31.3,30.03,NW,321,4.0,4.0,84,0.00,,,0.10,Wunderground v.1.15,2014-12-28 19:00:00,
2014-12-28 14:10:00,35.7,30.7,30.04,West,277,5.0,5.0,82,0.00,,,0.10,Wunderground v.1.15,2014-12-28 19:10:00,
2014-12-28 14:15:00,35.9,31.2,30.04,West,275,5.0,5.0,83,0.00,,,0.10,Wunderground v.1.15,2014-12-28 19:15:00,
2014-12-28 14:25:00,35.7,31.0,30.04,NW,309,5.0,9.0,83,0.00,,,0.10,Wunderground v.1.15,2014-12-28 19:25:00,
2014-12-28 14:35:00,35.8,31.1,30.05,WNW,300,4.0,8.0,83,0.00,,,0.10,Wunderground v.1.15,2014-12-28 19:35:00,
2014-12-28 14:40:00,35.8,30.8,30.05,WNW,299,5.0,5.0,82,0.00,,,0.10,Wunderground v.1.15,2014-12-28 19:40:00,
2014-12-28 14:50:00,35.9,31.2,30.05,NNW,329,3.0,8.0,83,0.00,,,0.10,Wunderground v.1.15,2014-12-28 19:50:00,
2014-12-28 14:55:00,35.9,30.9,30.06,WNW,286,5.0,8.0,82,0.00,,,0.10,Wunderground v.1.15,2014-12-28 19:55:00,
2014-12-28 15:05:00,35.9,30.9,30.05,NW,313,5.0,10.0,82,0.00,,,0.10,Wunderground v.1.15,2014-12-28 20:05:00,
2014-12-28 15:10:00,35.8,31.1,30.05,WNW,300,4.0,4.0,83,0.00,,,0.10,Wunderground v.1.15,2014-12-28 20:10:00,
2014-12-28 15:20:00,35.9,30.9,30.05,NW,315,4.0,4.0,82,0.00,,,0.10,Wunderground v.1.15,2014-12-28 20:20:00,
2014-12-28 15:30:00,36.0,31.3,30.06,NW,310,3.0,5.0,83,0.00,,,0.10,Wunderground v.1.15,2014-12-28 20:30:00,
2014-12-28 15:35:00,36.0,31.0,30.06,NW,304,5.0,9.0,82,0.00,,,0.10,Wunderground v.1.15,2014-12-28 20:35:00,
2014-12-28 15:45:00,35.9,30.6,30.07,WNW,300,6.0,9.0,81,0.00,,,0.10,Wunderground v.1.15,2014-12-28 20:45:00,
2014-12-28 15:55:00,35.9,30.6,30.07,NW,322,5.0,9.0,81,0.00,,,0.10,Wunderground v.1.15,2014-12-28 20:55:00,
2014-12-28 16:00:00,36.0,30.7,30.08,West,259,5.0,5.0,81,0.00,,,0.10,Wunderground v.1.15,2014-12-28 21:00:00,
2014-12-28 16:10:00,36.0,31.0,30.07,NW,306,4.0,11.0,82,0.00,,,0.10,Wunderground v.1.15,2014-12-28 21:10:00,
2014-12-28 16:20:00,35.9,30.6,30.08,NNW,344,5.0,10.0,81,0.00,,,0.10,Wunderground v.1.15,2014-12-28 21:20:00,
2014-12-28 16:25:00,35.8,30.8,30.08,NW,311,5.0,10.0,82,0.00,,,0.10,Wunderground v.1.15,2014-12-28 21:25:00,
2014-12-28 16:35:00,35.7,30.7,30.07,NW,319,5.0,9.0,82,0.00,,,0.10,Wunderground v.1.15,2014-12-28 21:35:00,
2014-12-28 16:40:00,35.6,30.6,30.08,West,270,5.0,5.0,82,0.00,,,0.10,Wunderground v.1.15,2014-12-28 21:40:00,
2014-12-28 16:50:00,35.5,30.5,30.08,NNW,327,5.0,5.0,82,0.00,,,0.10,Wunderground v.1.15,2014-12-28 21:50:00,
2014-12-28 16:55:00,35.5,30.5,30.08,NW,319,4.0,9.0,82,0.00,,,0.10,Wunderground v.1.15,2014-12-28 21:55:00,
2014-12-28 17:05:00,35.3,30.4,30.08,WNW,292,4.0,10.0,82,0.00,,,0.10,Wunderground v.1.15,2014-12-28 22:05:00,
2014-12-28 17:15:00,35.4,30.8,30.09,WNW,288,4.0,5.0,83,0.00,,,0.10,Wunderground v.1.15,2014-12-28 22:15:00,
2014-12-28 17:20:00,35.3,30.7,30.08,WNW,292,4.0,9.0,83,0.00,,,0.10,Wunderground v.1.15,2014-12-28 22:20:00,
2014-12-28 17:30:00,35.2,30.6,30.09,WNW,303,4.0,4.0,83,0.00,,,0.10,Wunderground v.1.15,2014-12-28 22:30:00,
2014-12-28 17:35:00,35.2,30.6,30.10,NW,322,3.0,5.0,83,0.00,,,0.10,Wunderground v.1.15,2014-12-28 22:35:00,
2014-12-28 17:45:00,35.0,30.4,30.10,NW,315,4.0,8.0,83,0.00,,,0.10,Wunderground v.1.15,2014-12-28 22:45:00,
2014-12-28 18:00:00,34.8,30.2,30.11,NW,320,4.0,5.0,83,0.00,,,0.10,Wunderground v.1.15,2014-12-28 23:00:00,
2014-12-28 18:10:00,34.7,30.4,30.10,NW,321,5.0,5.0,84,0.00,,,0.10,Wunderground v.1.15,2014-12-28 23:10:00,
2014-12-28 18:20:00,34.6,30.3,30.10,NW,312,4.0,4.0,84,0.00,,,0.10,Wunderground v.1.15,2014-12-28 23:20:00,
2014-12-28 18:25:00,34.5,30.5,30.10,NW,316,5.0,5.0,85,0.00,,,0.10,Wunderground v.1.15,2014-12-28 23:25:00,
2014-12-28 18:30:00,34.4,30.4,30.09,NNW,330,4.0,4.0,85,0.00,,,0.10,Wunderground v.1.15,2014-12-28 23:30:00,
2014-12-28 18:40:00,34.2,30.2,30.10,NNW,337,5.0,9.0,85,0.00,,,0.10,Wunderground v.1.15,2014-12-28 23:40:00,
2014-12-28 18:50:00,34.0,30.0,30.11,WNW,298,5.0,10.0,85,0.00,,,0.10,Wunderground v.1.15,2014-12-28 23:50:00,
2014-12-28 18:55:00,33.9,29.9,30.11,NNW,327,5.0,10.0,85,0.00,,,0.10,Wunderground v.1.15,2014-12-28 23:55:00,
2014-12-28 19:05:00,33.8,30.1,30.11,NNW,342,4.0,9.0,86,0.00,,,0.10,Wunderground v.1.15,2014-12-29 00:05:00,
2014-12-28 19:10:00,33.7,30.0,30.11,NW,325,4.0,9.0,86,0.00,,,0.10,Wunderground v.1.15,2014-12-29 00:10:00,
2014-12-28 19:20:00,33.6,29.9,30.11,NW,320,4.0,4.0,86,0.00,,,0.10,Wunderground v.1.15,2014-12-29 00:20:00,
2014-12-28 19:30:00,33.4,29.7,30.11,NW,317,3.0,3.0,86,0.00,,,0.10,Wunderground v.1.15,2014-12-29 00:30:00,
2014-12-28 19:35:00,33.3,29.6,30.11,NNW,331,3.0,9.0,86,0.00,,,0.10,Wunderground v.1.15,2014-12-29 00:35:00,
2014-12-28 19:45:00,33.2,29.8,30.11,NW,323,3.0,9.0,87,0.00,,,0.10,Wunderground v.1.15,2014-12-29 00:45:00,
2014-12-28 19:50:00,33.1,29.7,30.11,NNW,330,3.0,6.0,87,0.00,,,0.10,Wunderground v.1.15,2014-12-29 00:50:00,
2014-12-28 20:00:00,32.9,29.5,30.11,NNW,329,2.0,2.0,87,0.00,,,0.10,Wunderground v.1.15,2014-12-29 01:00:00,
2014-12-28 20:05:00,32.8,29.4,30.12,NNW,342,2.0,4.0,87,0.00,,,0.10,Wunderground v.1.15,2014-12-29 01:05:00,
2014-12-28 20:15:00,32.8,29.4,30.13,North,349,5.0,6.0,87,0.00,,,0.10,Wunderground v.1.15,2014-12-29 01:15:00,
2014-12-28 20:25:00,32.7,29.0,30.13,North,355,4.0,6.0,86,0.00,,,0.10,Wunderground v.1.15,2014-12-29 01:25:00,
2014-12-28 20:35:00,32.6,28.9,30.12,NNW,335,5.0,9.0,86,0.00,,,0.10,Wunderground v.1.15,2014-12-29 01:35:00,
2014-12-28 20:40:00,32.6,28.9,30.13,NNW,347,5.0,9.0,86,0.00,,,0.10,Wunderground v.1.15,2014-12-29 01:40:00,
2014-12-28 20:50:00,32.5,28.8,30.13,NNW,338,4.0,9.0,86,0.00,,,0.10,Wunderground v.1.15,2014-12-29 01:50:00,
2014-12-28 20:55:00,32.4,29.0,30.12,NNW,344,4.0,9.0,87,0.00,,,0.10,Wunderground v.1.15,2014-12-29 01:55:00,
2014-12-28 21:05:00,32.2,28.8,30.12,North,5,3.0,10.0,87,0.00,,,0.10,Wunderground v.1.15,2014-12-29 02:05:00,
2014-12-28 21:10:00,32.1,28.7,30.13,NNW,336,4.0,4.0,87,0.00,,,0.10,Wunderground v.1.15,2014-12-29 02:10:00,
2014-12-28 21:20:00,31.8,28.7,30.14,NNW,331,4.0,6.0,88,0.00,,,0.10,Wunderground v.1.15,2014-12-29 02:20:00,
2014-12-28 21:25:00,31.7,28.6,30.13,NNW,334,4.0,6.0,88,0.00,,,0.10,Wunderground v.1.15,2014-12-29 02:25:00,
2014-12-28 21:35:00,31.4,28.3,30.13,NNW,339,4.0,6.0,88,0.00,,,0.10,Wunderground v.1.15,2014-12-29 02:35:00,
2014-12-28 21:45:00,31.0,27.9,30.13,NNW,339,4.0,6.0,88,0.00,,,0.10,Wunderground v.1.15,2014-12-29 02:45:00,
2014-12-28 21:50:00,30.9,28.0,30.12,NNW,348,4.0,4.0,89,0.00,,,0.10,Wunderground v.1.15,2014-12-29 02:50:00,
2014-12-28 22:00:00,30.5,27.6,30.13,North,349,4.0,4.0,89,0.00,,,0.10,Wunderground v.1.15,2014-12-29 03:00:00,
2014-12-28 22:10:00,30.1,27.5,30.13,NNW,335,3.0,6.0,90,0.00,,,0.10,Wunderground v.1.15,2014-12-29 03:10:00,